mesure CO2

Relevé de la concentration de CO2 à Grandhan et OZO cette semaine…on déconfine et le CO2 explose ?

Partageons !

C’est un peu ça…
Nous en étions revenu-e-s à des moyennes compatibles avec celles d’autres pays…c’est fini ! Nous voici à nouveau avec des pics au delà des 500 voir proche des 600 PPM

Record Time Temp(℃) Humi(%RH) CO2(PPM)
1 05-18-20 09:40:56 19 45,5 417
2 05-18-20 10:40:56 23,6 39,6 409
3 05-18-20 11:40:56 23,3 39,6 404
4 05-18-20 12:40:56 25,2 35,2 408
5 05-18-20 13:40:56 26,4 33,6 406
6 05-18-20 14:40:56 28 31,7 407
7 05-18-20 15:40:56 28,2 34,3 409
8 05-18-20 16:40:56 28 34,9 408
9 05-18-20 17:40:56 27,1 37 410
10 05-18-20 18:40:56 26,1 33,8 414
11 05-18-20 19:40:56 24,5 32,3 414
12 05-18-20 20:40:56 22,6 34,1 426
13 05-18-20 21:40:56 20,1 37,4 458
14 05-18-20 22:40:56 17,4 44,8 434
15 05-18-20 23:40:56 15 48,7 480
16 05-19-20 00:40:56 12,8 55,4 491
17 05-19-20 01:40:56 11 59,3 496
18 05-19-20 02:40:56 9,7 61,6 499
19 05-19-20 03:40:56 8,4 65,3 497
20 05-19-20 04:40:56 7,5 66,5 539
21 05-19-20 05:40:56 6,5 67,9 502
22 05-19-20 06:40:56 6,2 72,4 499
23 05-19-20 07:40:56 9,5 71,1 463
24 05-19-20 08:40:56 14,1 57,1 439
25 05-19-20 09:40:56 18 47,3 427
26 05-19-20 10:40:56 21,1 39,7 410
27 05-19-20 11:40:56 25,2 34,6 404
28 05-19-20 12:40:56 28,7 30,5 401
29 05-19-20 13:40:56 29,1 28,2 403
30 05-19-20 14:40:56 30,2 32 407
31 05-19-20 15:40:56 30,1 30,9 408
32 05-19-20 16:40:56 30 31,9 407
33 05-19-20 17:40:56 29,7 33,6 406
34 05-19-20 18:40:56 27,9 35,3 412
35 05-19-20 19:40:56 26,4 38,5 408
36 05-19-20 20:40:56 24,9 41,7 412
37 05-19-20 21:40:56 22,7 43,2 420
38 05-19-20 22:40:56 20,7 44,6 417
39 05-19-20 23:40:56 18,9 49,5 427
40 05-20-20 00:40:56 17,9 51,5 434
41 05-20-20 01:40:56 16 55,4 467
42 05-20-20 02:40:56 14,4 60,4 481
43 05-20-20 03:40:56 13,2 64,6 470
44 05-20-20 04:40:56 12,4 63,6 560
45 05-20-20 05:40:56 11,3 66,4 516
46 05-20-20 06:40:56 10,8 70,2 501
47 05-20-20 07:40:56 13,9 71,4 489
48 05-20-20 08:40:56 18,6 60,7 455
49 05-20-20 09:40:56 23,6 49,8 419
50 05-20-20 10:40:56 26,6 42,7 412
51 05-20-20 11:40:56 28,4 38 411
52 05-20-20 12:40:56 30 37,1 414
53 05-20-20 13:40:56 30,3 35,6 415
54 05-20-20 14:40:56 31,3 33,4 416
55 05-20-20 15:40:56 31 35,2 412
56 05-20-20 16:40:56 30,7 35 413
57 05-20-20 17:40:56 28,1 37,7 411
58 05-20-20 18:40:56 27,1 40,2 407
59 05-20-20 19:40:56 25 42,5 408
60 05-20-20 20:40:56 23,3 46,1 407
61 05-20-20 21:40:56 21,4 49,5 423
62 05-20-20 22:40:56 19,5 52,5 430
63 05-20-20 23:40:56 17,8 59 431
64 05-21-20 00:40:56 16,6 58,9 474
65 05-21-20 01:40:56 15,2 63,1 490
66 05-21-20 02:40:56 13,9 65,7 515
67 05-21-20 03:40:56 12,9 67,8 517
68 05-21-20 04:40:56 12 68,5 535
69 05-21-20 05:40:56 11,2 70,2 520
70 05-21-20 06:40:56 11 75 498
71 05-21-20 07:40:56 14,9 73,3 473
72 05-21-20 08:40:56 20,2 61 434
73 05-21-20 09:40:56 24,5 48,8 415
74 05-21-20 10:40:56 27,2 44,5 413
75 05-21-20 11:40:56 29,3 38,4 410
76 05-21-20 12:40:56 32,8 31,8 415
77 05-21-20 13:40:56 33,4 32 413
78 05-21-20 14:40:56 33,6 29,2 410
79 05-21-20 15:40:56 33,6 28,4 412
80 05-21-20 16:40:56 33,7 27,4 411
81 05-21-20 17:40:56 32,5 31,1 413
82 05-21-20 18:40:56 31,6 31 414
83 05-21-20 19:40:56 30,3 31,9 413
84 05-21-20 20:40:56 28,5 36,1 416
85 05-21-20 21:40:56 25,5 41,3 474
86 05-21-20 22:40:56 22,8 46,7 534
87 05-21-20 23:40:56 20,6 54 552
88 05-22-20 00:40:56 19,1 58,7 508
89 05-22-20 01:40:56 17,7 58,5 598
90 05-22-20 02:40:56 16,5 65,9 521
91 05-22-20 03:40:56 15,6 65,9 559
92 05-22-20 04:40:56 14,6 67,5 545
93 05-22-20 05:40:56 14 68,1 556
94 05-22-20 06:40:56 14,2 71,5 544
95 05-22-20 07:40:56 15,1 75 512
96 05-22-20 08:40:56 16,9 73,3 470
97 05-22-20 09:40:56 18,7 68,7 461
98 05-22-20 10:40:56 20,3 65,5 437
99 05-22-20 11:40:56 23,1 62,6 415
100 05-22-20 12:40:56 26 49,2 399
101 05-22-20 13:40:56 26,8 48,7 397
102 05-22-20 14:40:56 29,1 44,1 402
103 05-22-20 15:40:56 29 40,1 404
104 05-22-20 16:40:56 27,2 42,6 405
105 05-22-20 17:40:56 25,1 51,2 411
106 05-22-20 18:40:56 21,8 65,6 411
107 05-22-20 19:40:56 19,2 70,8 414
108 05-22-20 20:40:56 18,6 74,3 424
109 05-22-20 21:40:56 18 76 417
110 05-22-20 22:40:56 17,4 79,1 419
111 05-22-20 23:40:56 17 79,6 423
112 05-23-20 00:40:56 15,6 73,6 418
113 05-23-20 01:40:56 15,4 76,1 438
114 05-23-20 02:40:56 14,9 77 436
115 05-23-20 03:40:56 14,4 76,8 432
116 05-23-20 04:40:56 14,1 75,8 435
117 05-23-20 05:40:56 13,5 76,2 432
118 05-23-20 06:40:56 13,1 76,7 433
119 05-23-20 07:40:56 13,2 75,8 429
120 05-23-20 08:40:56 12,7 76,1 418
121 05-23-20 09:40:56 13 78,7 417
122 05-23-20 10:40:56 13,1 79,6 409
123 05-23-20 11:40:56 13 78,7 407
124 05-23-20 12:40:56 14,2 76,3 405
125 05-23-20 13:40:56 16 69,9 402
126 05-23-20 14:40:56 18,3 54,4 403
127 05-23-20 15:40:56 17,5 58,5 408
128 05-23-20 16:40:56 20 46,2 404
129 05-23-20 17:40:56 19,8 40,2 408
130 05-23-20 18:40:56 18,6 37,9 410
131 05-23-20 19:40:56 18,5 38 410
132 05-23-20 20:40:56 17,4 40,8 410
133 05-23-20 21:40:56 16,2 42,2 410
134 05-23-20 22:40:56 14,8 45,7 412
135 05-23-20 23:40:56 14 49,6 415
136 05-24-20 00:40:56 12,6 55,1 417
137 05-24-20 01:40:56 12 59,1 418
138 05-24-20 02:40:56 10,9 63,2 420
139 05-24-20 03:40:56 10,1 65,9 420
140 05-24-20 04:40:56 9,7 66,2 426
141 05-24-20 05:40:56 8,9 70,7 423
142 05-24-20 06:40:56 9 72,3 421
143 05-24-20 07:40:56 9,4 73,3 421
144 05-24-20 08:40:56 11,5 73,2 416
145 05-24-20 09:40:56 14,5 65,1 409
146 05-24-20 10:40:56 15,6 60,1 408
147 05-24-20 11:40:56 18,5 52,6 406
148 05-24-20 12:40:56 19,3 50 405
149 05-24-20 13:40:56 18,9 49,4 406
150 05-24-20 14:40:56 18,7 52,1 406
151 05-24-20 15:40:56 19,2 51,8 405
smart

Partageons !
Author: Bernard Adam
Cuisinier à la retraite

Laisser un commentaire

Votre adresse de messagerie ne sera pas publiée. Les champs obligatoires sont indiqués avec *

60 − 55 =